sensor_id;sensor_type;location;lat;lon;timestamp;pressure;altitude;pressure_sealevel;temperature;humidity
8653;BME280;4364;52.426;9.424;2022-11-20T00:01:16;100855.75;;;-4.26;85.53
8653;BME280;4364;52.426;9.424;2022-11-20T00:03:44;100850.16;;;-4.31;85.46
8653;BME280;4364;52.426;9.424;2022-11-20T00:06:13;100842.13;;;-4.23;85.69
8653;BME280;4364;52.426;9.424;2022-11-20T00:08:40;100838.38;;;-4.29;85.48
8653;BME280;4364;52.426;9.424;2022-11-20T00:11:09;100842.75;;;-4.36;85.25
8653;BME280;4364;52.426;9.424;2022-11-20T00:13:41;100837.59;;;-4.37;85.82
8653;BME280;4364;52.426;9.424;2022-11-20T00:16:10;100836.75;;;-4.38;85.90
8653;BME280;4364;52.426;9.424;2022-11-20T00:18:37;100838.25;;;-4.35;85.87
8653;BME280;4364;52.426;9.424;2022-11-20T00:21:05;100832.94;;;-4.35;86.19
8653;BME280;4364;52.426;9.424;2022-11-20T00:23:32;100836.84;;;-4.23;85.73
8653;BME280;4364;52.426;9.424;2022-11-20T00:26:06;100839.00;;;-4.26;85.97
8653;BME280;4364;52.426;9.424;2022-11-20T00:28:33;100828.75;;;-4.30;86.15
8653;BME280;4364;52.426;9.424;2022-11-20T00:31:01;100825.56;;;-4.25;86.15
8653;BME280;4364;52.426;9.424;2022-11-20T00:33:28;100825.69;;;-4.18;85.49
8653;BME280;4364;52.426;9.424;2022-11-20T00:36:06;100829.16;;;-4.18;85.36
8653;BME280;4364;52.426;9.424;2022-11-20T00:38:33;100832.72;;;-4.25;86.07
8653;BME280;4364;52.426;9.424;2022-11-20T00:41:04;100829.53;;;-4.21;85.88
8653;BME280;4364;52.426;9.424;2022-11-20T00:43:30;100823.03;;;-4.18;86.16
8653;BME280;4364;52.426;9.424;2022-11-20T00:48:24;100815.88;;;-4.18;86.00
8653;BME280;4364;52.426;9.424;2022-11-20T00:50:52;100812.06;;;-4.15;86.19
8653;BME280;4364;52.426;9.424;2022-11-20T00:53:19;100807.91;;;-4.18;86.05
8653;BME280;4364;52.426;9.424;2022-11-20T00:56:01;100811.94;;;-4.22;86.55
8653;BME280;4364;52.426;9.424;2022-11-20T00:58:36;100812.06;;;-4.15;86.84
8653;BME280;4364;52.426;9.424;2022-11-20T01:01:23;100819.84;;;-4.14;86.98
8653;BME280;4364;52.426;9.424;2022-11-20T01:03:52;100811.72;;;-4.12;86.55
8653;BME280;4364;52.426;9.424;2022-11-20T01:06:21;100822.31;;;-4.12;86.43
8653;BME280;4364;52.426;9.424;2022-11-20T01:08:50;100820.19;;;-4.17;86.80
8653;BME280;4364;52.426;9.424;2022-11-20T01:11:21;100804.91;;;-4.15;87.06
8653;BME280;4364;52.426;9.424;2022-11-20T01:13:49;100810.69;;;-4.11;87.04
8653;BME280;4364;52.426;9.424;2022-11-20T01:16:31;100812.81;;;-4.06;86.75
8653;BME280;4364;52.426;9.424;2022-11-20T01:18:59;100809.50;;;-4.08;86.58
8653;BME280;4364;52.426;9.424;2022-11-20T01:21:32;100816.50;;;-4.07;86.58
8653;BME280;4364;52.426;9.424;2022-11-20T01:23:59;100807.22;;;-4.12;86.44
8653;BME280;4364;52.426;9.424;2022-11-20T01:26:29;100811.41;;;-4.17;86.81
8653;BME280;4364;52.426;9.424;2022-11-20T01:28:56;100815.22;;;-4.20;86.92
8653;BME280;4364;52.426;9.424;2022-11-20T01:31:29;100811.59;;;-4.19;86.68
8653;BME280;4364;52.426;9.424;2022-11-20T01:33:58;100815.13;;;-4.26;86.79
8653;BME280;4364;52.426;9.424;2022-11-20T01:36:27;100805.31;;;-4.26;86.34
8653;BME280;4364;52.426;9.424;2022-11-20T01:38:57;100807.25;;;-4.20;86.70
8653;BME280;4364;52.426;9.424;2022-11-20T01:41:24;100795.53;;;-4.25;86.42
8653;BME280;4364;52.426;9.424;2022-11-20T01:44:12;100802.75;;;-4.34;87.28
8653;BME280;4364;52.426;9.424;2022-11-20T01:46:59;100793.56;;;-4.32;87.31
8653;BME280;4364;52.426;9.424;2022-11-20T01:49:44;100788.44;;;-4.33;87.20
8653;BME280;4364;52.426;9.424;2022-11-20T01:52:21;100790.47;;;-4.35;87.60
8653;BME280;4364;52.426;9.424;2022-11-20T01:55:13;100784.44;;;-4.29;87.53
8653;BME280;4364;52.426;9.424;2022-11-20T01:57:41;100785.09;;;-4.27;87.00
8653;BME280;4364;52.426;9.424;2022-11-20T02:00:13;100780.31;;;-4.32;86.95
8653;BME280;4364;52.426;9.424;2022-11-20T02:02:46;100785.31;;;-4.37;87.09
8653;BME280;4364;52.426;9.424;2022-11-20T02:05:26;100776.53;;;-4.37;87.17
8653;BME280;4364;52.426;9.424;2022-11-20T02:07:55;100775.50;;;-4.36;87.44
8653;BME280;4364;52.426;9.424;2022-11-20T02:10:24;100777.88;;;-4.41;86.95
8653;BME280;4364;52.426;9.424;2022-11-20T02:12:51;100776.53;;;-4.37;87.47
8653;BME280;4364;52.426;9.424;2022-11-20T02:15:37;100775.97;;;-4.33;87.36
8653;BME280;4364;52.426;9.424;2022-11-20T02:18:04;100775.16;;;-4.33;87.37
8653;BME280;4364;52.426;9.424;2022-11-20T02:20:32;100776.19;;;-4.34;87.24
8653;BME280;4364;52.426;9.424;2022-11-20T02:23:10;100768.41;;;-4.36;87.68
8653;BME280;4364;52.426;9.424;2022-11-20T02:25:39;100774.19;;;-4.32;87.24
8653;BME280;4364;52.426;9.424;2022-11-20T02:28:07;100766.38;;;-4.34;87.44
8653;BME280;4364;52.426;9.424;2022-11-20T02:30:33;100764.19;;;-4.30;87.45
8653;BME280;4364;52.426;9.424;2022-11-20T02:33:00;100769.69;;;-4.32;87.88
8653;BME280;4364;52.426;9.424;2022-11-20T02:37:54;100775.81;;;-4.31;87.27
8653;BME280;4364;52.426;9.424;2022-11-20T02:40:22;100769.34;;;-4.29;87.26
8653;BME280;4364;52.426;9.424;2022-11-20T02:42:53;100761.06;;;-4.34;87.58
8653;BME280;4364;52.426;9.424;2022-11-20T02:45:19;100769.75;;;-4.40;87.43
8653;BME280;4364;52.426;9.424;2022-11-20T02:47:46;100762.91;;;-4.34;87.28
8653;BME280;4364;52.426;9.424;2022-11-20T02:50:13;100763.38;;;-4.31;88.01
8653;BME280;4364;52.426;9.424;2022-11-20T02:52:39;100765.38;;;-4.33;87.73
8653;BME280;4364;52.426;9.424;2022-11-20T02:55:06;100765.38;;;-4.33;87.82
8653;BME280;4364;52.426;9.424;2022-11-20T02:57:33;100765.19;;;-4.31;88.19
8653;BME280;4364;52.426;9.424;2022-11-20T03:00:00;100755.06;;;-4.28;88.25
8653;BME280;4364;52.426;9.424;2022-11-20T03:02:30;100755.28;;;-4.14;88.19
8653;BME280;4364;52.426;9.424;2022-11-20T03:04:56;100756.75;;;-4.12;88.29
8653;BME280;4364;52.426;9.424;2022-11-20T03:07:23;100761.34;;;-4.05;88.23
8653;BME280;4364;52.426;9.424;2022-11-20T03:09:50;100747.03;;;-4.04;87.75
8653;BME280;4364;52.426;9.424;2022-11-20T03:12:17;100742.88;;;-3.99;87.97
8653;BME280;4364;52.426;9.424;2022-11-20T03:14:44;100742.34;;;-3.94;88.18
8653;BME280;4364;52.426;9.424;2022-11-20T03:17:18;100738.47;;;-3.92;88.16
8653;BME280;4364;52.426;9.424;2022-11-20T03:19:44;100735.19;;;-3.94;87.91
8653;BME280;4364;52.426;9.424;2022-11-20T03:22:11;100732.16;;;-3.91;87.90
8653;BME280;4364;52.426;9.424;2022-11-20T03:24:37;100722.63;;;-3.85;87.90
8653;BME280;4364;52.426;9.424;2022-11-20T03:27:04;100726.03;;;-3.76;87.40
8653;BME280;4364;52.426;9.424;2022-11-20T03:29:30;100717.88;;;-3.75;87.87
8653;BME280;4364;52.426;9.424;2022-11-20T03:31:56;100717.69;;;-3.73;87.17
8653;BME280;4364;52.426;9.424;2022-11-20T03:34:23;100719.53;;;-3.74;87.62
8653;BME280;4364;52.426;9.424;2022-11-20T03:36:50;100716.69;;;-3.72;87.47
8653;BME280;4364;52.426;9.424;2022-11-20T03:39:16;100721.84;;;-3.70;87.34
8653;BME280;4364;52.426;9.424;2022-11-20T03:41:43;100715.13;;;-3.66;87.12
8653;BME280;4364;52.426;9.424;2022-11-20T03:44:11;100711.75;;;-3.60;87.54
8653;BME280;4364;52.426;9.424;2022-11-20T03:46:38;100719.00;;;-3.54;87.31
8653;BME280;4364;52.426;9.424;2022-11-20T03:49:05;100709.63;;;-3.50;87.10
8653;BME280;4364;52.426;9.424;2022-11-20T03:51:33;100705.31;;;-3.51;87.09
8653;BME280;4364;52.426;9.424;2022-11-20T03:54:06;100705.63;;;-3.61;86.95
8653;BME280;4364;52.426;9.424;2022-11-20T03:56:35;100698.72;;;-3.55;87.18
8653;BME280;4364;52.426;9.424;2022-11-20T03:59:02;100710.19;;;-3.55;87.28
8653;BME280;4364;52.426;9.424;2022-11-20T04:01:32;100702.66;;;-3.51;87.18
8653;BME280;4364;52.426;9.424;2022-11-20T04:03:59;100707.59;;;-3.48;86.90
8653;BME280;4364;52.426;9.424;2022-11-20T04:06:28;100697.81;;;-3.47;87.34
8653;BME280;4364;52.426;9.424;2022-11-20T04:08:55;100696.16;;;-3.48;87.35
8653;BME280;4364;52.426;9.424;2022-11-20T04:11:30;100695.78;;;-3.45;87.07
8653;BME280;4364;52.426;9.424;2022-11-20T04:14:02;100690.56;;;-3.39;87.16
8653;BME280;4364;52.426;9.424;2022-11-20T04:16:30;100691.63;;;-3.33;86.89
8653;BME280;4364;52.426;9.424;2022-11-20T04:18:59;100690.81;;;-3.33;86.73
8653;BME280;4364;52.426;9.424;2022-11-20T04:21:26;100693.13;;;-3.30;86.55
8653;BME280;4364;52.426;9.424;2022-11-20T04:23:53;100686.94;;;-3.31;86.90
8653;BME280;4364;52.426;9.424;2022-11-20T04:26:22;100690.91;;;-3.27;86.77
8653;BME280;4364;52.426;9.424;2022-11-20T04:28:49;100692.00;;;-3.36;86.97
8653;BME280;4364;52.426;9.424;2022-11-20T04:31:18;100697.31;;;-3.36;87.12
8653;BME280;4364;52.426;9.424;2022-11-20T04:33:45;100704.13;;;-3.33;86.81
8653;BME280;4364;52.426;9.424;2022-11-20T04:36:14;100702.09;;;-3.31;86.93
8653;BME280;4364;52.426;9.424;2022-11-20T04:38:42;100694.75;;;-3.29;86.64
8653;BME280;4364;52.426;9.424;2022-11-20T04:41:17;100691.47;;;-3.31;86.68
8653;BME280;4364;52.426;9.424;2022-11-20T04:43:49;100695.97;;;-3.32;87.01
8653;BME280;4364;52.426;9.424;2022-11-20T04:46:17;100707.03;;;-3.28;86.91
8653;BME280;4364;52.426;9.424;2022-11-20T04:48:44;100703.91;;;-3.17;87.18
8653;BME280;4364;52.426;9.424;2022-11-20T04:51:11;100705.63;;;-3.09;86.53
8653;BME280;4364;52.426;9.424;2022-11-20T04:53:41;100715.47;;;-3.10;86.23
8653;BME280;4364;52.426;9.424;2022-11-20T04:56:10;100716.19;;;-3.16;86.01
8653;BME280;4364;52.426;9.424;2022-11-20T04:58:38;100705.38;;;-3.14;85.33
8653;BME280;4364;52.426;9.424;2022-11-20T05:01:13;100700.41;;;-3.18;85.19
8653;BME280;4364;52.426;9.424;2022-11-20T05:03:41;100703.38;;;-3.27;85.73
8653;BME280;4364;52.426;9.424;2022-11-20T05:06:09;100698.78;;;-3.19;85.84
8653;BME280;4364;52.426;9.424;2022-11-20T05:08:37;100702.53;;;-3.13;85.71
8653;BME280;4364;52.426;9.424;2022-11-20T05:11:08;100690.28;;;-3.29;85.91
8653;BME280;4364;52.426;9.424;2022-11-20T05:13:35;100692.66;;;-3.34;86.74
8653;BME280;4364;52.426;9.424;2022-11-20T05:16:11;100682.44;;;-3.15;85.96
8653;BME280;4364;52.426;9.424;2022-11-20T05:18:39;100687.44;;;-3.27;85.90
8653;BME280;4364;52.426;9.424;2022-11-20T05:21:07;100688.16;;;-3.19;86.09
8653;BME280;4364;52.426;9.424;2022-11-20T05:23:35;100682.63;;;-3.17;85.70
8653;BME280;4364;52.426;9.424;2022-11-20T05:26:02;100681.31;;;-3.06;85.22
8653;BME280;4364;52.426;9.424;2022-11-20T05:28:30;100680.06;;;-3.10;85.00
8653;BME280;4364;52.426;9.424;2022-11-20T05:31:04;100671.22;;;-3.11;85.83
8653;BME280;4364;52.426;9.424;2022-11-20T05:33:31;100678.28;;;-3.03;84.94
8653;BME280;4364;52.426;9.424;2022-11-20T05:35:58;100677.53;;;-2.97;84.35
8653;BME280;4364;52.426;9.424;2022-11-20T05:38:24;100680.50;;;-3.07;84.76
8653;BME280;4364;52.426;9.424;2022-11-20T05:40:51;100677.47;;;-3.04;85.29
8653;BME280;4364;52.426;9.424;2022-11-20T05:43:18;100666.06;;;-2.98;85.50
8653;BME280;4364;52.426;9.424;2022-11-20T05:45:54;100669.75;;;-2.99;85.23
8653;BME280;4364;52.426;9.424;2022-11-20T05:48:21;100661.31;;;-3.02;85.15
8653;BME280;4364;52.426;9.424;2022-11-20T05:50:48;100669.38;;;-2.95;85.35
8653;BME280;4364;52.426;9.424;2022-11-20T05:53:14;100663.66;;;-2.92;85.15
8653;BME280;4364;52.426;9.424;2022-11-20T05:55:41;100667.09;;;-2.99;85.02
8653;BME280;4364;52.426;9.424;2022-11-20T05:58:07;100661.84;;;-2.92;84.59
8653;BME280;4364;52.426;9.424;2022-11-20T06:00:34;100669.63;;;-2.90;84.42
8653;BME280;4364;52.426;9.424;2022-11-20T06:03:02;100658.91;;;-2.97;84.72
8653;BME280;4364;52.426;9.424;2022-11-20T06:05:28;100654.59;;;-2.98;84.37
8653;BME280;4364;52.426;9.424;2022-11-20T06:07:55;100655.16;;;-3.03;85.36
8653;BME280;4364;52.426;9.424;2022-11-20T06:10:22;100649.47;;;-3.00;85.52
8653;BME280;4364;52.426;9.424;2022-11-20T06:12:48;100644.13;;;-3.00;85.39
8653;BME280;4364;52.426;9.424;2022-11-20T06:15:15;100648.03;;;-2.81;84.54
8653;BME280;4364;52.426;9.424;2022-11-20T06:17:41;100653.84;;;-2.92;84.55
8653;BME280;4364;52.426;9.424;2022-11-20T06:20:08;100652.00;;;-2.91;85.06
8653;BME280;4364;52.426;9.424;2022-11-20T06:22:35;100642.81;;;-2.89;85.49
8653;BME280;4364;52.426;9.424;2022-11-20T06:25:01;100649.53;;;-2.93;85.05
8653;BME280;4364;52.426;9.424;2022-11-20T06:27:28;100638.81;;;-3.00;85.08
8653;BME280;4364;52.426;9.424;2022-11-20T06:29:54;100634.38;;;-2.92;85.26
8653;BME280;4364;52.426;9.424;2022-11-20T06:32:21;100632.88;;;-2.80;84.81
8653;BME280;4364;52.426;9.424;2022-11-20T06:34:48;100643.66;;;-2.67;84.02
8653;BME280;4364;52.426;9.424;2022-11-20T06:37:14;100640.47;;;-2.77;82.75
8653;BME280;4364;52.426;9.424;2022-11-20T06:39:41;100640.22;;;-2.82;83.17
8653;BME280;4364;52.426;9.424;2022-11-20T06:42:07;100634.72;;;-2.81;82.88
8653;BME280;4364;52.426;9.424;2022-11-20T06:44:34;100636.47;;;-2.66;82.07
8653;BME280;4364;52.426;9.424;2022-11-20T06:47:00;100638.25;;;-2.73;82.18
8653;BME280;4364;52.426;9.424;2022-11-20T06:49:28;100639.88;;;-2.72;82.15
8653;BME280;4364;52.426;9.424;2022-11-20T06:51:54;100647.63;;;-2.56;81.31
8653;BME280;4364;52.426;9.424;2022-11-20T06:54:21;100647.00;;;-2.58;80.69
8653;BME280;4364;52.426;9.424;2022-11-20T06:56:48;100658.88;;;-2.61;81.96
8653;BME280;4364;52.426;9.424;2022-11-20T06:59:14;100643.69;;;-2.60;82.08
8653;BME280;4364;52.426;9.424;2022-11-20T07:01:41;100642.66;;;-2.59;82.21
8653;BME280;4364;52.426;9.424;2022-11-20T07:04:07;100648.47;;;-2.55;81.98
8653;BME280;4364;52.426;9.424;2022-11-20T07:06:34;100636.72;;;-2.61;82.33
8653;BME280;4364;52.426;9.424;2022-11-20T07:09:00;100645.81;;;-2.55;82.04
8653;BME280;4364;52.426;9.424;2022-11-20T07:11:27;100644.09;;;-2.63;82.77
8653;BME280;4364;52.426;9.424;2022-11-20T07:13:54;100646.00;;;-2.57;82.92
8653;BME280;4364;52.426;9.424;2022-11-20T07:16:21;100641.88;;;-2.81;82.90
8653;BME280;4364;52.426;9.424;2022-11-20T07:18:48;100640.41;;;-2.84;83.13
8653;BME280;4364;52.426;9.424;2022-11-20T07:21:16;100638.06;;;-2.72;82.79
8653;BME280;4364;52.426;9.424;2022-11-20T07:23:43;100634.38;;;-2.71;83.17
8653;BME280;4364;52.426;9.424;2022-11-20T07:26:11;100640.34;;;-2.69;83.04
8653;BME280;4364;52.426;9.424;2022-11-20T07:28:37;100648.53;;;-2.70;83.24
8653;BME280;4364;52.426;9.424;2022-11-20T07:31:04;100648.97;;;-2.67;82.88
8653;BME280;4364;52.426;9.424;2022-11-20T07:33:32;100642.41;;;-2.64;82.60
8653;BME280;4364;52.426;9.424;2022-11-20T07:35:59;100645.28;;;-2.66;82.80
8653;BME280;4364;52.426;9.424;2022-11-20T07:38:27;100642.66;;;-2.59;82.77
8653;BME280;4364;52.426;9.424;2022-11-20T07:40:57;100648.47;;;-2.55;82.08
8653;BME280;4364;52.426;9.424;2022-11-20T07:43:24;100646.44;;;-2.53;82.03
8653;BME280;4364;52.426;9.424;2022-11-20T07:45:51;100643.69;;;-2.60;82.08
8653;BME280;4364;52.426;9.424;2022-11-20T07:48:18;100644.53;;;-2.59;82.26
8653;BME280;4364;52.426;9.424;2022-11-20T07:50:44;100647.75;;;-2.64;82.35
8653;BME280;4364;52.426;9.424;2022-11-20T07:53:12;100654.53;;;-2.62;82.24
8653;BME280;4364;52.426;9.424;2022-11-20T07:55:40;100639.13;;;-2.66;83.07
8653;BME280;4364;52.426;9.424;2022-11-20T07:58:06;100642.19;;;-2.69;83.80
8653;BME280;4364;52.426;9.424;2022-11-20T08:00:33;100643.66;;;-2.67;83.69
8653;BME280;4364;52.426;9.424;2022-11-20T08:03:03;100633.31;;;-2.55;83.42
8653;BME280;4364;52.426;9.424;2022-11-20T08:05:29;100642.09;;;-2.54;82.87
8653;BME280;4364;52.426;9.424;2022-11-20T08:07:56;100648.53;;;-2.49;82.07
8653;BME280;4364;52.426;9.424;2022-11-20T08:10:22;100642.22;;;-2.41;81.91
8653;BME280;4364;52.426;9.424;2022-11-20T08:12:51;100644.34;;;-2.30;81.83
8653;BME280;4364;52.426;9.424;2022-11-20T08:15:38;100643.03;;;-2.12;80.64
8653;BME280;4364;52.426;9.424;2022-11-20T08:18:07;100649.09;;;-2.25;79.93
8653;BME280;4364;52.426;9.424;2022-11-20T08:20:54;100644.31;;;-2.36;80.59
8653;BME280;4364;52.426;9.424;2022-11-20T08:23:22;100644.78;;;-2.26;80.61
8653;BME280;4364;52.426;9.424;2022-11-20T08:25:50;100643.72;;;-2.32;81.09
8653;BME280;4364;52.426;9.424;2022-11-20T08:28:17;100645.41;;;-2.24;80.50
8653;BME280;4364;52.426;9.424;2022-11-20T08:30:47;100653.16;;;-2.29;80.39
8653;BME280;4364;52.426;9.424;2022-11-20T08:33:14;100650.88;;;-2.32;80.78
8653;BME280;4364;52.426;9.424;2022-11-20T08:35:41;100642.31;;;-2.28;80.59
8653;BME280;4364;52.426;9.424;2022-11-20T08:38:09;100644.97;;;-2.28;80.83
8653;BME280;4364;52.426;9.424;2022-11-20T08:40:35;100659.56;;;-2.24;80.93
8653;BME280;4364;52.426;9.424;2022-11-20T08:43:02;100659.25;;;-2.14;80.99
8653;BME280;4364;52.426;9.424;2022-11-20T08:45:28;100644.66;;;-2.18;81.29
8653;BME280;4364;52.426;9.424;2022-11-20T08:48:03;100648.53;;;-2.20;81.19
8653;BME280;4364;52.426;9.424;2022-11-20T08:50:30;100656.63;;;-2.07;80.83
8653;BME280;4364;52.426;9.424;2022-11-20T08:53:03;100663.97;;;-2.09;80.80
8653;BME280;4364;52.426;9.424;2022-11-20T08:55:30;100652.38;;;-1.95;80.73
8653;BME280;4364;52.426;9.424;2022-11-20T08:57:57;100632.00;;;-2.09;81.94
8653;BME280;4364;52.426;9.424;2022-11-20T09:00:24;100626.63;;;-2.16;81.71
8653;BME280;4364;52.426;9.424;2022-11-20T09:02:51;100645.75;;;-2.06;81.82
8653;BME280;4364;52.426;9.424;2022-11-20T09:05:18;100632.91;;;-1.95;80.98
8653;BME280;4364;52.426;9.424;2022-11-20T09:07:45;100623.41;;;-1.70;80.46
8653;BME280;4364;52.426;9.424;2022-11-20T09:10:11;100625.41;;;-1.78;79.79
8653;BME280;4364;52.426;9.424;2022-11-20T09:12:54;100625.38;;;-1.85;79.71
8653;BME280;4364;52.426;9.424;2022-11-20T09:15:24;100622.75;;;-1.78;80.18
8653;BME280;4364;52.426;9.424;2022-11-20T09:17:58;100632.25;;;-1.62;79.42
8653;BME280;4364;52.426;9.424;2022-11-20T09:20:27;100623.03;;;-1.60;78.43
8653;BME280;4364;52.426;9.424;2022-11-20T09:22:56;100633.75;;;-1.53;79.26
8653;BME280;4364;52.426;9.424;2022-11-20T09:25:23;100638.13;;;-1.32;78.93
8653;BME280;4364;52.426;9.424;2022-11-20T09:27:59;100639.72;;;-1.44;78.05
8653;BME280;4364;52.426;9.424;2022-11-20T09:30:27;100655.53;;;-1.43;77.46
8653;BME280;4364;52.426;9.424;2022-11-20T09:32:54;100652.06;;;-1.43;78.73
8653;BME280;4364;52.426;9.424;2022-11-20T09:35:21;100651.06;;;-1.29;77.69
8653;BME280;4364;52.426;9.424;2022-11-20T09:37:48;100650.06;;;-1.21;77.81
8653;BME280;4364;52.426;9.424;2022-11-20T09:40:28;100658.06;;;-1.21;77.90
8653;BME280;4364;52.426;9.424;2022-11-20T09:43:10;100651.31;;;-1.17;77.87
8653;BME280;4364;52.426;9.424;2022-11-20T09:48:35;100659.28;;;-1.24;78.88
8653;BME280;4364;52.426;9.424;2022-11-20T09:53:49;100653.78;;;-1.09;78.94
8653;BME280;4364;52.426;9.424;2022-11-20T09:56:19;100651.13;;;-1.02;78.56
8653;BME280;4364;52.426;9.424;2022-11-20T09:58:52;100654.47;;;-1.00;77.55
8653;BME280;4364;52.426;9.424;2022-11-20T10:01:24;100651.78;;;-1.00;77.72
8653;BME280;4364;52.426;9.424;2022-11-20T10:04:03;100636.38;;;-1.05;78.21
8653;BME280;4364;52.426;9.424;2022-11-20T10:11:52;100628.38;;;-0.98;77.22
8653;BME280;4364;52.426;9.424;2022-11-20T10:15:27;100626.94;;;-0.81;77.33
8653;BME280;4364;52.426;9.424;2022-11-20T10:26:38;100629.00;;;-0.89;76.45
8653;BME280;4364;52.426;9.424;2022-11-20T10:29:12;100619.34;;;-0.84;76.12
8653;BME280;4364;52.426;9.424;2022-11-20T10:31:42;100616.06;;;-0.79;76.19
8653;BME280;4364;52.426;9.424;2022-11-20T10:34:34;100614.00;;;-0.77;75.27
8653;BME280;4364;52.426;9.424;2022-11-20T10:37:13;100618.97;;;-0.67;74.75
8653;BME280;4364;52.426;9.424;2022-11-20T10:39:52;100618.53;;;-0.71;73.45
8653;BME280;4364;52.426;9.424;2022-11-20T10:42:31;100611.16;;;-0.69;74.19
8653;BME280;4364;52.426;9.424;2022-11-20T10:45:17;100611.34;;;-0.84;74.41
8653;BME280;4364;52.426;9.424;2022-11-20T10:47:48;100606.84;;;-0.63;74.18
8653;BME280;4364;52.426;9.424;2022-11-20T10:50:20;100607.66;;;-0.63;72.66
8653;BME280;4364;52.426;9.424;2022-11-20T10:52:55;100606.66;;;-0.68;71.14
8653;BME280;4364;52.426;9.424;2022-11-20T10:55:55;100602.31;;;-0.69;71.34
8653;BME280;4364;52.426;9.424;2022-11-20T10:58:41;100605.00;;;-0.49;71.48
8653;BME280;4364;52.426;9.424;2022-11-20T11:01:19;100594.91;;;-0.54;71.34
8653;BME280;4364;52.426;9.424;2022-11-20T11:03:50;100592.84;;;-0.52;71.80
8653;BME280;4364;52.426;9.424;2022-11-20T11:08:53;100600.06;;;-0.39;71.29
8653;BME280;4364;52.426;9.424;2022-11-20T11:13:50;100598.00;;;-0.44;71.20
8653;BME280;4364;52.426;9.424;2022-11-20T11:16:26;100591.84;;;-0.38;71.02
8653;BME280;4364;52.426;9.424;2022-11-20T11:19:10;100576.59;;;-0.30;71.46
8653;BME280;4364;52.426;9.424;2022-11-20T11:21:37;100585.44;;;-0.23;70.51
8653;BME280;4364;52.426;9.424;2022-11-20T11:24:26;100572.91;;;-0.29;70.94
8653;BME280;4364;52.426;9.424;2022-11-20T11:27:14;100581.97;;;-0.37;71.51
8653;BME280;4364;52.426;9.424;2022-11-20T11:29:44;100579.28;;;-0.30;72.04
8653;BME280;4364;52.426;9.424;2022-11-20T11:32:21;100579.72;;;-0.27;71.74
8653;BME280;4364;52.426;9.424;2022-11-20T11:35:02;100573.31;;;-0.26;71.50
8653;BME280;4364;52.426;9.424;2022-11-20T11:37:37;100574.16;;;-0.39;72.00
8653;BME280;4364;52.426;9.424;2022-11-20T11:40:06;100570.63;;;-0.26;72.72
8653;BME280;4364;52.426;9.424;2022-11-20T11:42:58;100572.28;;;-0.25;73.07
8653;BME280;4364;52.426;9.424;2022-11-20T11:45:26;100558.28;;;-0.07;72.88
8653;BME280;4364;52.426;9.424;2022-11-20T11:47:56;100554.72;;;0.06;72.71
8653;BME280;4364;52.426;9.424;2022-11-20T11:50:26;100552.81;;;0.20;71.84
8653;BME280;4364;52.426;9.424;2022-11-20T11:53:14;100546.06;;;0.11;71.47
8653;BME280;4364;52.426;9.424;2022-11-20T11:55:49;100560.47;;;0.10;71.96
8653;BME280;4364;52.426;9.424;2022-11-20T12:07:00;100548.13;;;0.15;72.67
8653;BME280;4364;52.426;9.424;2022-11-20T12:09:50;100547.50;;;0.07;73.34
8653;BME280;4364;52.426;9.424;2022-11-20T12:12:23;100549.53;;;0.18;72.88
8653;BME280;4364;52.426;9.424;2022-11-20T12:14:53;100553.69;;;0.14;73.45
8653;BME280;4364;52.426;9.424;2022-11-20T12:17:20;100544.34;;;0.30;74.02
8653;BME280;4364;52.426;9.424;2022-11-20T12:19:47;100538.44;;;0.60;72.53
8653;BME280;4364;52.426;9.424;2022-11-20T12:25:10;100526.69;;;0.92;72.94
8653;BME280;4364;52.426;9.424;2022-11-20T12:27:47;100517.19;;;0.97;71.81
8653;BME280;4364;52.426;9.424;2022-11-20T12:30:20;100521.78;;;0.89;72.11
8653;BME280;4364;52.426;9.424;2022-11-20T12:38:26;100519.44;;;0.68;73.26
8653;BME280;4364;52.426;9.424;2022-11-20T12:43:24;100516.25;;;0.52;73.89
8653;BME280;4364;52.426;9.424;2022-11-20T13:02:14;100511.88;;;0.90;72.91
8653;BME280;4364;52.426;9.424;2022-11-20T13:05:15;100508.56;;;0.95;71.82
8653;BME280;4364;52.426;9.424;2022-11-20T13:07:44;100514.13;;;0.93;72.58
8653;BME280;4364;52.426;9.424;2022-11-20T13:10:25;100519.34;;;0.81;73.56
8653;BME280;4364;52.426;9.424;2022-11-20T13:12:58;100518.56;;;0.81;73.26
8653;BME280;4364;52.426;9.424;2022-11-20T13:15:40;100518.66;;;0.92;72.59
8653;BME280;4364;52.426;9.424;2022-11-20T13:18:10;100521.72;;;0.96;72.60
8653;BME280;4364;52.426;9.424;2022-11-20T13:20:42;100514.56;;;0.90;73.48
8653;BME280;4364;52.426;9.424;2022-11-20T13:23:10;100514.94;;;0.93;73.76
8653;BME280;4364;52.426;9.424;2022-11-20T13:25:38;100511.66;;;0.91;74.18
8653;BME280;4364;52.426;9.424;2022-11-20T13:30:36;100501.78;;;0.92;74.00
8653;BME280;4364;52.426;9.424;2022-11-20T13:35:36;100506.84;;;1.00;74.22
8653;BME280;4364;52.426;9.424;2022-11-20T13:38:08;100508.28;;;1.03;74.25
8653;BME280;4364;52.426;9.424;2022-11-20T13:43:19;100502.38;;;0.94;74.43
8653;BME280;4364;52.426;9.424;2022-11-20T13:45:58;100505.94;;;0.88;73.49
8653;BME280;4364;52.426;9.424;2022-11-20T13:48:40;100500.63;;;0.81;74.36
8653;BME280;4364;52.426;9.424;2022-11-20T13:51:28;100507.03;;;0.73;75.50
8653;BME280;4364;52.426;9.424;2022-11-20T13:57:22;100500.84;;;0.80;75.34
8653;BME280;4364;52.426;9.424;2022-11-20T14:02:21;100495.84;;;0.83;74.54
8653;BME280;4364;52.426;9.424;2022-11-20T14:04:51;100495.69;;;0.78;75.03
8653;BME280;4364;52.426;9.424;2022-11-20T14:07:21;100484.56;;;0.81;75.02
8653;BME280;4364;52.426;9.424;2022-11-20T14:09:55;100490.78;;;0.75;75.18
8653;BME280;4364;52.426;9.424;2022-11-20T14:12:28;100488.94;;;0.76;75.65
8653;BME280;4364;52.426;9.424;2022-11-20T14:14:55;100487.06;;;0.76;75.27
8653;BME280;4364;52.426;9.424;2022-11-20T14:17:34;100480.28;;;0.73;75.84
8653;BME280;4364;52.426;9.424;2022-11-20T14:20:05;100470.03;;;0.70;76.04
8653;BME280;4364;52.426;9.424;2022-11-20T14:22:32;100480.16;;;0.62;75.94
8653;BME280;4364;52.426;9.424;2022-11-20T14:25:18;100469.66;;;0.60;76.25
8653;BME280;4364;52.426;9.424;2022-11-20T14:27:51;100465.75;;;0.63;76.05
8653;BME280;4364;52.426;9.424;2022-11-20T14:30:21;100460.19;;;0.64;75.96
8653;BME280;4364;52.426;9.424;2022-11-20T14:32:49;100458.09;;;0.66;76.26
8653;BME280;4364;52.426;9.424;2022-11-20T14:35:27;100458.91;;;0.67;76.64
8653;BME280;4364;52.426;9.424;2022-11-20T14:37:55;100449.69;;;0.63;76.46
8653;BME280;4364;52.426;9.424;2022-11-20T14:42:50;100463.13;;;0.56;76.67
8653;BME280;4364;52.426;9.424;2022-11-20T14:45:16;100448.09;;;0.55;76.62
8653;BME280;4364;52.426;9.424;2022-11-20T14:47:44;100453.91;;;0.52;76.61
8653;BME280;4364;52.426;9.424;2022-11-20T14:52:55;100445.50;;;0.42;77.32
8653;BME280;4364;52.426;9.424;2022-11-20T14:55:36;100444.69;;;0.41;77.29